Time;durP1;ratioP1;P1;durP2;ratioP2;P2;SDS_P1;SDS_P2;PMS_P1;PMS_P2;Temp;Humidity;BMP_temperature;BMP_pressure;BME280_temperature;BME280_humidity;BME280_pressure;Samples;Min_cycle;Max_cycle;Signal;HPM_P1;HPM_P2
2022/05/03 00:00:18;;;;;;;57.80;26.80;;;;;;;-128.00;-1.00;-1.00;100074;1303;1003549;-25
2022/05/03 00:02:50;;;;;;;53.70;25.40;;;;;;;-128.00;-1.00;-1.00;100058;1303;1003570;-35
2022/05/03 00:05:29;;;;;;;40.50;23.60;;;;;;;-128.00;-1.00;-1.00;100096;1302;1004257;-31
2022/05/03 00:08:02;;;;;;;37.00;20.30;;;;;;;-128.00;-1.00;-1.00;100107;1303;1004122;-28
2022/05/03 00:10:35;;;;;;;47.80;23.80;;;;;;;-128.00;-1.00;-1.00;100059;1303;1003946;-28
2022/05/03 00:13:06;;;;;;;40.80;22.40;;;;;;;-128.00;-1.00;-1.00;100114;1303;1003538;-24
2022/05/03 00:15:36;;;;;;;52.20;23.10;;;;;;;-128.00;-1.00;-1.00;100108;1303;1003419;-25
2022/05/03 00:18:05;;;;;;;69.60;28.10;;;;;;;-128.00;-1.00;-1.00;99956;1303;1003940;-29
2022/05/03 00:20:34;;;;;;;57.80;26.00;;;;;;;-128.00;-1.00;-1.00;100074;1303;1004057;-24
2022/05/03 00:23:03;;;;;;;51.40;26.90;;;;;;;-128.00;-1.00;-1.00;100065;1303;1003873;-25
2022/05/03 00:25:32;;;;;;;62.90;30.10;;;;;;;-128.00;-1.00;-1.00;100128;1303;1003403;-26
2022/05/03 00:28:01;;;;;;;38.10;19.80;;;;;;;-128.00;-1.00;-1.00;100078;1302;1004057;-28
2022/05/03 00:30:30;;;;;;;32.90;16.60;;;;;;;-128.00;-1.00;-1.00;100079;1303;1003961;-27
2022/05/03 00:32:59;;;;;;;35.80;16.00;;;;;;;-128.00;-1.00;-1.00;100078;1303;1003604;-28
2022/05/03 00:35:28;;;;;;;34.90;16.90;;;;;;;-128.00;-1.00;-1.00;100047;1303;1003631;-25
2022/05/03 00:37:57;;;;;;;39.20;19.80;;;;;;;-128.00;-1.00;-1.00;100097;1303;1003474;-28
2022/05/03 00:40:26;;;;;;;37.40;22.00;;;;;;;-128.00;-1.00;-1.00;100074;1303;1003146;-23
2022/05/03 00:43:03;;;;;;;51.80;25.90;;;;;;;-128.00;-1.00;-1.00;100163;1303;1002999;-25
2022/05/03 00:45:32;;;;;;;36.80;17.40;;;;;;;-128.00;-1.00;-1.00;100084;1303;1003871;-28
2022/05/03 00:48:08;;;;;;;30.50;16.30;;;;;;;-128.00;-1.00;-1.00;100096;1302;1003181;-25
2022/05/03 00:50:44;;;;;;;39.10;19.10;;;;;;;-128.00;-1.00;-1.00;100104;1303;1004710;-28
2022/05/03 00:53:17;;;;;;;31.50;16.00;;;;;;;-128.00;-1.00;-1.00;100061;1303;1003706;-28
2022/05/03 00:56:09;;;;;;;29.50;15.50;;;;;;;-128.00;-1.00;-1.00;100031;1303;1004154;-28
2022/05/03 00:58:43;;;;;;;26.50;13.80;;;;;;;-128.00;-1.00;-1.00;100063;1303;1003099;-25
2022/05/03 01:01:22;;;;;;;24.10;13.30;;;;;;;-128.00;-1.00;-1.00;100035;1303;1004497;-29
2022/05/03 01:03:59;;;;;;;41.00;16.70;;;;;;;-128.00;-1.00;-1.00;100046;1303;1003410;-28
2022/05/03 01:06:31;;;;;;;29.20;16.80;;;;;;;-128.00;-1.00;-1.00;100125;1303;1004779;-25
2022/05/03 01:09:05;;;;;;;28.40;16.40;;;;;;;-128.00;-1.00;-1.00;100120;1303;1003131;-29
2022/05/03 01:11:39;;;;;;;35.20;19.20;;;;;;;-128.00;-1.00;-1.00;100035;1303;1002995;-28
2022/05/03 01:14:18;;;;;;;32.50;16.20;;;;;;;-128.00;-1.00;-1.00;100169;1303;1004303;-27
2022/05/03 01:16:50;;;;;;;30.60;15.20;;;;;;;-128.00;-1.00;-1.00;100044;1303;1003269;-24
2022/05/03 01:19:23;;;;;;;28.70;17.60;;;;;;;-128.00;-1.00;-1.00;100034;1303;1003916;-29
2022/05/03 01:21:59;;;;;;;22.20;13.20;;;;;;;-128.00;-1.00;-1.00;100101;1303;1003970;-28
2022/05/03 01:24:35;;;;;;;25.10;14.90;;;;;;;-128.00;-1.00;-1.00;100054;1303;1004488;-24
2022/05/03 01:27:11;;;;;;;28.60;15.20;;;;;;;-128.00;-1.00;-1.00;100144;1303;1003865;-28
2022/05/03 01:29:40;;;;;;;44.20;18.20;;;;;;;-128.00;-1.00;-1.00;100055;1303;1003661;-29
2022/05/03 01:32:09;;;;;;;26.70;17.10;;;;;;;-128.00;-1.00;-1.00;100033;1303;1004034;-29
2022/05/03 01:34:38;;;;;;;32.50;17.60;;;;;;;-128.00;-1.00;-1.00;100029;1303;1003373;-25
2022/05/03 01:37:11;;;;;;;30.70;16.70;;;;;;;-128.00;-1.00;-1.00;100093;1303;1003008;-24
2022/05/03 01:39:47;;;;;;;15.90;10.70;;;;;;;-128.00;-1.00;-1.00;100109;1303;1004277;-28
2022/05/03 01:42:22;;;;;;;26.70;16.30;;;;;;;-128.00;-1.00;-1.00;100056;1303;1004296;-24
2022/05/03 01:44:58;;;;;;;19.30;13.10;;;;;;;-128.00;-1.00;-1.00;100005;1303;1003464;-30
2022/05/03 01:47:35;;;;;;;25.00;14.80;;;;;;;-128.00;-1.00;-1.00;100065;1303;1003687;-25
2022/05/03 01:52:50;;;;;;;38.10;21.80;;;;;;;-128.00;-1.00;-1.00;100135;1303;1004037;-28
2022/05/03 01:55:31;;;;;;;35.40;19.50;;;;;;;-128.00;-1.00;-1.00;100160;1303;1003644;-24
2022/05/03 01:58:23;;;;;;;31.20;18.10;;;;;;;-128.00;-1.00;-1.00;100099;1303;1003381;-25
2022/05/03 02:01:16;;;;;;;30.10;18.50;;;;;;;-128.00;-1.00;-1.00;100111;1303;1004789;-25
2022/05/03 02:03:49;;;;;;;40.50;19.60;;;;;;;-128.00;-1.00;-1.00;100089;1303;1004060;-27
2022/05/03 02:06:29;;;;;;;33.60;18.40;;;;;;;-128.00;-1.00;-1.00;100091;1303;1003594;-27
2022/05/03 02:09:03;;;;;;;35.40;18.80;;;;;;;-128.00;-1.00;-1.00;100142;1303;1003453;-28
2022/05/03 02:11:35;;;;;;;39.60;20.90;;;;;;;-128.00;-1.00;-1.00;100096;1303;1003992;-28
2022/05/03 02:16:45;;;;;;;32.20;15.30;;;;;;;-128.00;-1.00;-1.00;100147;1303;1002950;-30
2022/05/03 02:19:17;;;;;;;33.50;19.20;;;;;;;-128.00;-1.00;-1.00;100062;1303;1003217;-28
2022/05/03 02:22:09;;;;;;;38.20;21.20;;;;;;;-128.00;-1.00;-1.00;100137;1303;1002568;-25
2022/05/03 02:24:52;;;;;;;31.90;17.70;;;;;;;-128.00;-1.00;-1.00;100105;1303;1003133;-30
2022/05/03 02:27:21;;;;;;;34.70;20.50;;;;;;;-128.00;-1.00;-1.00;100071;1303;1003377;-28
2022/05/03 02:29:50;;;;;;;38.00;20.00;;;;;;;-128.00;-1.00;-1.00;100140;1303;1003131;-28
2022/05/03 02:32:26;;;;;;;42.30;18.90;;;;;;;-128.00;-1.00;-1.00;100126;1303;1003598;-28
2022/05/03 02:35:05;;;;;;;36.80;17.70;;;;;;;-128.00;-1.00;-1.00;100045;1303;1004365;-25
2022/05/03 02:37:37;;;;;;;31.30;18.80;;;;;;;-128.00;-1.00;-1.00;99913;1303;1004322;-28
2022/05/03 02:40:07;;;;;;;36.70;19.90;;;;;;;-128.00;-1.00;-1.00;100135;1303;1003904;-28
2022/05/03 02:42:36;;;;;;;25.40;16.80;;;;;;;-128.00;-1.00;-1.00;100100;1303;1004284;-28
2022/05/03 02:45:07;;;;;;;34.20;21.20;;;;;;;-128.00;-1.00;-1.00;100123;1303;1004117;-25
2022/05/03 02:47:43;;;;;;;26.30;16.40;;;;;;;-128.00;-1.00;-1.00;100084;1303;1005126;-25
2022/05/03 02:50:17;;;;;;;30.20;20.10;;;;;;;-128.00;-1.00;-1.00;100068;1303;1004589;-24
2022/05/03 02:52:49;;;;;;;39.00;20.70;;;;;;;-128.00;-1.00;-1.00;100065;1303;1002933;-27
2022/05/03 02:55:20;;;;;;;27.50;17.80;;;;;;;-128.00;-1.00;-1.00;100079;1303;1004201;-25
2022/05/03 02:57:54;;;;;;;38.40;22.50;;;;;;;-128.00;-1.00;-1.00;100159;1303;1003338;-28
2022/05/03 03:03:03;;;;;;;29.10;19.40;;;;;;;-128.00;-1.00;-1.00;100092;1303;1003785;-28
2022/05/03 03:05:34;;;;;;;37.40;19.20;;;;;;;-128.00;-1.00;-1.00;100079;1303;1003887;-28
2022/05/03 03:08:03;;;;;;;34.40;21.00;;;;;;;-128.00;-1.00;-1.00;100059;1303;1004105;-28
2022/05/03 03:10:38;;;;;;;28.60;16.20;;;;;;;-128.00;-1.00;-1.00;100071;1303;1004248;-28
2022/05/03 03:13:11;;;;;;;44.90;20.30;;;;;;;-128.00;-1.00;-1.00;100155;1303;1003858;-28
2022/05/03 03:15:40;;;;;;;32.20;19.60;;;;;;;-128.00;-1.00;-1.00;100115;1300;1003027;-34
2022/05/03 03:18:14;;;;;;;35.10;18.80;;;;;;;-128.00;-1.00;-1.00;100110;1303;1003115;-30
2022/05/03 03:20:45;;;;;;;35.90;19.30;;;;;;;-128.00;-1.00;-1.00;100084;1303;1003992;-28
2022/05/03 03:23:15;;;;;;;46.10;21.50;;;;;;;-128.00;-1.00;-1.00;100101;1303;1003701;-24
2022/05/03 03:25:46;;;;;;;31.70;18.50;;;;;;;-128.00;-1.00;-1.00;100094;1303;1004405;-25
2022/05/03 03:28:19;;;;;;;44.00;24.20;;;;;;;-128.00;-1.00;-1.00;100104;1303;1003876;-29
2022/05/03 03:30:49;;;;;;;28.60;15.40;;;;;;;-128.00;-1.00;-1.00;100060;1303;1003490;-25
2022/05/03 03:33:19;;;;;;;23.40;14.20;;;;;;;-128.00;-1.00;-1.00;100077;1303;1003296;-28
2022/05/03 03:35:48;;;;;;;40.20;20.80;;;;;;;-128.00;-1.00;-1.00;100079;1303;1004074;-25
2022/05/03 03:38:17;;;;;;;34.00;17.10;;;;;;;-128.00;-1.00;-1.00;100072;1303;1004108;-28
2022/05/03 03:40:46;;;;;;;31.60;18.40;;;;;;;-128.00;-1.00;-1.00;100065;1303;1003570;-28
2022/05/03 03:43:16;;;;;;;31.70;18.70;;;;;;;-128.00;-1.00;-1.00;100148;1303;1003572;-25
2022/05/03 03:45:45;;;;;;;27.80;16.10;;;;;;;-128.00;-1.00;-1.00;100113;1303;1003609;-28
2022/05/03 03:48:14;;;;;;;36.40;18.30;;;;;;;-128.00;-1.00;-1.00;100107;1303;1004350;-23
2022/05/03 03:50:43;;;;;;;35.00;17.50;;;;;;;-128.00;-1.00;-1.00;100117;1303;1003543;-30
2022/05/03 03:53:14;;;;;;;36.40;17.50;;;;;;;-128.00;-1.00;-1.00;100081;1302;1003108;-25
2022/05/03 03:55:44;;;;;;;34.00;20.00;;;;;;;-128.00;-1.00;-1.00;100092;1303;1003871;-25
2022/05/03 03:58:13;;;;;;;33.70;17.60;;;;;;;-128.00;-1.00;-1.00;100060;1303;1003692;-25
2022/05/03 04:00:42;;;;;;;30.80;17.50;;;;;;;-128.00;-1.00;-1.00;100151;1303;1003643;-28
2022/05/03 04:03:11;;;;;;;32.80;16.30;;;;;;;-128.00;-1.00;-1.00;100040;1303;1003439;-24
2022/05/03 04:05:40;;;;;;;24.70;15.30;;;;;;;-128.00;-1.00;-1.00;100155;1303;1003523;-30
2022/05/03 04:08:09;;;;;;;30.10;17.90;;;;;;;-128.00;-1.00;-1.00;100112;1303;1004012;-25
2022/05/03 04:10:38;;;;;;;26.40;16.70;;;;;;;-128.00;-1.00;-1.00;100146;1303;1004022;-28
2022/05/03 04:13:07;;;;;;;24.90;14.60;;;;;;;-128.00;-1.00;-1.00;100083;1303;1003249;-25
2022/05/03 04:15:36;;;;;;;25.50;15.40;;;;;;;-128.00;-1.00;-1.00;100077;1303;1004132;-24
2022/05/03 04:18:07;;;;;;;20.00;12.30;;;;;;;-128.00;-1.00;-1.00;99733;1303;1004278;-26
2022/05/03 04:20:36;;;;;;;25.90;15.60;;;;;;;-128.00;-1.00;-1.00;100087;1303;1003774;-28
2022/05/03 04:23:05;;;;;;;36.90;18.10;;;;;;;-128.00;-1.00;-1.00;100106;1303;1003330;-25
2022/05/03 04:25:34;;;;;;;26.40;15.60;;;;;;;-128.00;-1.00;-1.00;99918;1303;1003883;-25
2022/05/03 04:28:03;;;;;;;24.40;15.20;;;;;;;-128.00;-1.00;-1.00;100091;1303;1004100;-28
2022/05/03 04:30:33;;;;;;;40.70;17.00;;;;;;;-128.00;-1.00;-1.00;100086;1303;1005257;-25
2022/05/03 04:33:02;;;;;;;33.10;16.30;;;;;;;-128.00;-1.00;-1.00;100089;1303;1003468;-28
2022/05/03 04:35:31;;;;;;;17.90;12.40;;;;;;;-128.00;-1.00;-1.00;100110;1303;1003756;-24
2022/05/03 04:38:00;;;;;;;23.50;13.70;;;;;;;-128.00;-1.00;-1.00;100174;1303;1004101;-25
2022/05/03 04:40:29;;;;;;;25.10;13.40;;;;;;;-128.00;-1.00;-1.00;100102;1303;1003408;-28
2022/05/03 04:42:58;;;;;;;25.70;13.80;;;;;;;-128.00;-1.00;-1.00;100055;1303;1004020;-29
2022/05/03 04:45:27;;;;;;;19.40;13.30;;;;;;;-128.00;-1.00;-1.00;99909;1303;1003444;-24
2022/05/03 04:47:55;;;;;;;26.90;16.70;;;;;;;-128.00;-1.00;-1.00;100137;1303;1004037;-28
2022/05/03 04:50:24;;;;;;;32.20;16.50;;;;;;;-128.00;-1.00;-1.00;100083;1303;1003548;-28
2022/05/03 04:52:53;;;;;;;27.70;17.20;;;;;;;-128.00;-1.00;-1.00;100120;1303;1003252;-25
2022/05/03 04:55:23;;;;;;;26.60;16.20;;;;;;;-128.00;-1.00;-1.00;100059;1303;1003307;-24
2022/05/03 04:57:53;;;;;;;18.90;12.60;;;;;;;-128.00;-1.00;-1.00;100103;1303;1003671;-24
2022/05/03 05:00:22;;;;;;;25.00;14.70;;;;;;;-128.00;-1.00;-1.00;100103;1303;1002963;-28
2022/05/03 05:02:51;;;;;;;22.10;14.10;;;;;;;-128.00;-1.00;-1.00;100127;1302;1004580;-24
2022/05/03 05:05:20;;;;;;;20.80;13.70;;;;;;;-128.00;-1.00;-1.00;100156;1303;1003237;-28
2022/05/03 05:07:49;;;;;;;20.40;11.50;;;;;;;-128.00;-1.00;-1.00;100106;1302;1003589;-24
2022/05/03 05:12:51;;;;;;;19.00;11.80;;;;;;;-128.00;-1.00;-1.00;100067;1303;1004727;-28
2022/05/03 05:15:23;;;;;;;19.70;12.30;;;;;;;-128.00;-1.00;-1.00;100094;1303;1002977;-25
2022/05/03 05:17:53;;;;;;;20.80;12.90;;;;;;;-128.00;-1.00;-1.00;100085;1303;1003625;-31
2022/05/03 05:20:23;;;;;;;21.00;12.60;;;;;;;-128.00;-1.00;-1.00;99921;1303;1003673;-29
2022/05/03 05:22:52;;;;;;;18.90;12.10;;;;;;;-128.00;-1.00;-1.00;99883;1303;1004847;-28
2022/05/03 05:25:21;;;;;;;19.40;11.10;;;;;;;-128.00;-1.00;-1.00;100137;1303;1004717;-24
2022/05/03 05:27:50;;;;;;;19.40;11.70;;;;;;;-128.00;-1.00;-1.00;100157;1303;1004533;-28
2022/05/03 05:30:19;;;;;;;19.50;11.60;;;;;;;-128.00;-1.00;-1.00;100106;1303;1004315;-28
2022/05/03 05:32:48;;;;;;;20.30;11.90;;;;;;;-128.00;-1.00;-1.00;100092;1302;1004033;-25
2022/05/03 05:35:17;;;;;;;16.80;10.90;;;;;;;-128.00;-1.00;-1.00;100158;1303;1004094;-29
2022/05/03 05:37:46;;;;;;;11.20;7.50;;;;;;;-128.00;-1.00;-1.00;100144;1302;1004049;-25
2022/05/03 05:40:15;;;;;;;16.30;10.90;;;;;;;-128.00;-1.00;-1.00;100067;1303;1003921;-24
2022/05/03 05:42:44;;;;;;;13.80;9.10;;;;;;;-128.00;-1.00;-1.00;100102;1303;1003937;-28
2022/05/03 05:45:12;;;;;;;18.60;12.60;;;;;;;-128.00;-1.00;-1.00;100121;1303;1004837;-25
2022/05/03 05:47:42;;;;;;;19.60;11.90;;;;;;;-128.00;-1.00;-1.00;100097;1303;1003857;-30
2022/05/03 05:50:11;;;;;;;18.70;10.50;;;;;;;-128.00;-1.00;-1.00;99922;1303;1003227;-29
2022/05/03 05:55:13;;;;;;;18.70;11.80;;;;;;;-128.00;-1.00;-1.00;100091;1303;1002890;-29
2022/05/03 05:57:42;;;;;;;22.20;10.10;;;;;;;-128.00;-1.00;-1.00;100124;1303;1003511;-26
2022/05/03 06:00:11;;;;;;;14.00;10.90;;;;;;;-128.00;-1.00;-1.00;100037;1303;1003699;-28
2022/05/03 06:02:41;;;;;;;15.30;11.50;;;;;;;-128.00;-1.00;-1.00;100126;1303;1003764;-28
2022/05/03 06:05:10;;;;;;;19.50;11.70;;;;;;;-128.00;-1.00;-1.00;100119;1303;1004371;-28
2022/05/03 06:07:39;;;;;;;14.00;10.80;;;;;;;-128.00;-1.00;-1.00;100156;1303;1004512;-25
2022/05/03 06:10:08;;;;;;;15.30;9.30;;;;;;;-128.00;-1.00;-1.00;100195;1303;1003821;-26
2022/05/03 06:12:37;;;;;;;13.00;9.20;;;;;;;-128.00;-1.00;-1.00;100031;1303;1003795;-29
2022/05/03 06:15:07;;;;;;;11.20;8.80;;;;;;;-128.00;-1.00;-1.00;100119;1303;1004310;-28
2022/05/03 06:17:36;;;;;;;11.90;8.90;;;;;;;-128.00;-1.00;-1.00;100094;1303;1003281;-26
2022/05/03 06:20:05;;;;;;;11.30;9.90;;;;;;;-128.00;-1.00;-1.00;100095;1303;1003972;-27
2022/05/03 06:22:34;;;;;;;14.00;9.30;;;;;;;-128.00;-1.00;-1.00;100109;1303;1004241;-28
2022/05/03 06:25:03;;;;;;;25.10;8.50;;;;;;;-128.00;-1.00;-1.00;100152;1303;1004304;-28
2022/05/03 06:27:32;;;;;;;10.60;8.90;;;;;;;-128.00;-1.00;-1.00;100196;1303;1003816;-30
2022/05/03 06:30:03;;;;;;;14.40;11.30;;;;;;;-128.00;-1.00;-1.00;100157;1303;1004375;-28
2022/05/03 06:32:33;;;;;;;9.50;7.30;;;;;;;-128.00;-1.00;-1.00;100080;1303;1003259;-27
2022/05/03 06:35:03;;;;;;;26.60;13.60;;;;;;;-128.00;-1.00;-1.00;99964;1303;1002974;-26
2022/05/03 06:37:36;;;;;;;18.80;7.90;;;;;;;-128.00;-1.00;-1.00;100128;1303;1004470;-28
2022/05/03 06:40:07;;;;;;;11.70;7.20;;;;;;;-128.00;-1.00;-1.00;100068;1303;1003731;-25
2022/05/03 06:42:37;;;;;;;13.90;5.80;;;;;;;-128.00;-1.00;-1.00;100126;1303;1002945;-25
2022/05/03 06:45:07;;;;;;;12.80;7.20;;;;;;;-128.00;-1.00;-1.00;100061;1303;1003534;-25
2022/05/03 06:47:36;;;;;;;5.80;5.00;;;;;;;-128.00;-1.00;-1.00;100133;1303;1002837;-25
2022/05/03 06:50:07;;;;;;;5.70;4.90;;;;;;;-128.00;-1.00;-1.00;100147;1303;1003317;-25
2022/05/03 06:52:36;;;;;;;7.80;5.20;;;;;;;-128.00;-1.00;-1.00;99968;1302;1003922;-28
2022/05/03 06:55:05;;;;;;;9.10;5.50;;;;;;;-128.00;-1.00;-1.00;100149;1303;1003525;-25
2022/05/03 06:57:35;;;;;;;5.90;4.90;;;;;;;-128.00;-1.00;-1.00;100157;1303;1003623;-28
2022/05/03 07:00:05;;;;;;;5.20;4.30;;;;;;;-128.00;-1.00;-1.00;100075;1303;1004162;-29
2022/05/03 07:02:34;;;;;;;6.10;4.70;;;;;;;-128.00;-1.00;-1.00;100091;1303;1003953;-28
2022/05/03 07:05:04;;;;;;;7.40;5.00;;;;;;;-128.00;-1.00;-1.00;100165;1303;1003445;-30
2022/05/03 07:07:33;;;;;;;4.70;4.20;;;;;;;-128.00;-1.00;-1.00;100132;1303;1004001;-30
2022/05/03 07:10:03;;;;;;;5.90;4.70;;;;;;;-128.00;-1.00;-1.00;100050;1303;1005083;-26
2022/05/03 07:12:32;;;;;;;6.90;5.00;;;;;;;-128.00;-1.00;-1.00;100139;1303;1004012;-25
2022/05/03 07:15:04;;;;;;;8.10;4.50;;;;;;;-128.00;-1.00;-1.00;100096;1303;1002941;-25
2022/05/03 07:25:11;;;;;;;6.10;4.40;;;;;;;-128.00;-1.00;-1.00;100114;1302;1003634;-25
2022/05/03 07:27:40;;;;;;;6.50;4.10;;;;;;;-128.00;-1.00;-1.00;100185;1302;1004015;-25
2022/05/03 07:30:10;;;;;;;10.20;4.40;;;;;;;-128.00;-1.00;-1.00;100067;1303;1004028;-25
2022/05/03 07:32:39;;;;;;;3.90;2.70;;;;;;;-128.00;-1.00;-1.00;100096;1303;1003479;-28
2022/05/03 07:35:09;;;;;;;4.90;3.80;;;;;;;-128.00;-1.00;-1.00;100068;1303;1004107;-24
2022/05/03 07:37:38;;;;;;;9.70;4.10;;;;;;;-128.00;-1.00;-1.00;100053;1303;1004693;-29
2022/05/03 07:40:08;;;;;;;4.20;3.10;;;;;;;-128.00;-1.00;-1.00;100075;1303;1003882;-29
2022/05/03 07:42:37;;;;;;;18.50;3.30;;;;;;;-128.00;-1.00;-1.00;100104;1303;1005283;-27
2022/05/03 07:45:07;;;;;;;10.50;3.30;;;;;;;-128.00;-1.00;-1.00;100055;1303;1003461;-25
2022/05/03 07:47:36;;;;;;;4.60;3.30;;;;;;;-128.00;-1.00;-1.00;99942;1302;1003218;-24
2022/05/03 07:50:05;;;;;;;8.70;4.80;;;;;;;-128.00;-1.00;-1.00;100125;1303;1004370;-25
2022/05/03 07:52:35;;;;;;;4.70;3.80;;;;;;;-128.00;-1.00;-1.00;100102;1303;1004735;-25
2022/05/03 07:55:07;;;;;;;15.80;6.00;;;;;;;-128.00;-1.00;-1.00;100031;1303;1003031;-28
2022/05/03 07:57:36;;;;;;;5.40;4.10;;;;;;;-128.00;-1.00;-1.00;100124;1303;1004424;-25
2022/05/03 08:00:06;;;;;;;5.90;3.50;;;;;;;-128.00;-1.00;-1.00;100131;1303;1003518;-25
2022/05/03 08:02:35;;;;;;;3.40;3.00;;;;;;;-128.00;-1.00;-1.00;100060;1303;1003779;-28
2022/05/03 08:05:04;;;;;;;4.90;3.30;;;;;;;-128.00;-1.00;-1.00;100097;1303;1003909;-25
2022/05/03 08:07:35;;;;;;;4.80;2.70;;;;;;;-128.00;-1.00;-1.00;100047;1303;1003607;-28
2022/05/03 08:10:04;;;;;;;9.90;3.60;;;;;;;-128.00;-1.00;-1.00;100062;1303;1003420;-28
2022/05/03 08:12:33;;;;;;;4.50;3.10;;;;;;;-128.00;-1.00;-1.00;100105;1303;1003701;-25
2022/05/03 08:15:03;;;;;;;3.50;2.80;;;;;;;-128.00;-1.00;-1.00;100132;1302;1004020;-28
2022/05/03 08:17:32;;;;;;;4.40;2.90;;;;;;;-128.00;-1.00;-1.00;100119;1303;1003858;-28
2022/05/03 08:20:02;;;;;;;4.30;3.20;;;;;;;-128.00;-1.00;-1.00;100129;1303;1003475;-28
2022/05/03 08:22:33;;;;;;;7.00;4.40;;;;;;;-128.00;-1.00;-1.00;100114;1302;1003838;-28
2022/05/03 08:25:02;;;;;;;6.50;4.40;;;;;;;-128.00;-1.00;-1.00;100092;1303;1002793;-24
2022/05/03 08:27:33;;;;;;;5.40;4.10;;;;;;;-128.00;-1.00;-1.00;100077;1301;1003426;-24
2022/05/03 08:30:03;;;;;;;5.30;3.90;;;;;;;-128.00;-1.00;-1.00;100117;1303;1003834;-24
2022/05/03 08:32:32;;;;;;;4.30;2.80;;;;;;;-128.00;-1.00;-1.00;100093;1303;1004720;-28
2022/05/03 08:35:01;;;;;;;4.20;3.10;;;;;;;-128.00;-1.00;-1.00;100147;1302;1004419;-28
2022/05/03 08:42:35;;;;;;;4.00;3.30;;;;;;;-128.00;-1.00;-1.00;100087;1303;1003560;-24
2022/05/03 08:45:05;;;;;;;4.40;3.60;;;;;;;-128.00;-1.00;-1.00;100121;1303;1004516;-28
2022/05/03 08:47:34;;;;;;;2.80;2.50;;;;;;;-128.00;-1.00;-1.00;100125;1303;1003636;-28
2022/05/03 08:50:06;;;;;;;4.10;3.60;;;;;;;-128.00;-1.00;-1.00;100106;1303;1004796;-25
2022/05/03 08:52:40;;;;;;;7.20;2.50;;;;;;;-128.00;-1.00;-1.00;100107;1303;1004479;-25
2022/05/03 08:55:11;;;;;;;6.70;3.10;;;;;;;-128.00;-1.00;-1.00;100118;1303;1003084;-28
2022/05/03 08:57:42;;;;;;;4.60;3.20;;;;;;;-128.00;-1.00;-1.00;100085;1303;1003378;-28
2022/05/03 09:00:13;;;;;;;6.40;3.10;;;;;;;-128.00;-1.00;-1.00;99890;1303;1003603;-28
2022/05/03 09:02:43;;;;;;;2.00;1.80;;;;;;;-128.00;-1.00;-1.00;100105;1303;1003161;-25
2022/05/03 09:05:13;;;;;;;3.60;2.70;;;;;;;-128.00;-1.00;-1.00;100069;1303;1003522;-29
2022/05/03 09:07:47;;;;;;;4.80;2.90;;;;;;;-128.00;-1.00;-1.00;100073;1302;1003722;-25
2022/05/03 09:10:18;;;;;;;9.70;3.10;;;;;;;-128.00;-1.00;-1.00;100105;1303;1002843;-24
2022/05/03 09:12:49;;;;;;;6.70;4.60;;;;;;;-128.00;-1.00;-1.00;100068;1303;1002484;-28
2022/05/03 09:15:25;;;;;;;5.30;3.60;;;;;;;-128.00;-1.00;-1.00;100094;1301;1003101;-28
2022/05/03 09:17:54;;;;;;;6.70;3.10;;;;;;;-128.00;-1.00;-1.00;100092;1303;1003029;-24
2022/05/03 09:25:30;;;;;;;2.40;1.80;;;;;;;-128.00;-1.00;-1.00;99994;1303;1003510;-28
2022/05/03 09:28:04;;;;;;;3.00;2.20;;;;;;;-128.00;-1.00;-1.00;99968;1303;1003834;-24
2022/05/03 09:30:34;;;;;;;13.00;2.60;;;;;;;-128.00;-1.00;-1.00;100085;1303;1003711;-28
2022/05/03 09:33:02;;;;;;;2.70;2.40;;;;;;;-128.00;-1.00;-1.00;100079;1302;1002955;-24
2022/05/03 09:35:33;;;;;;;27.80;13.30;;;;;;;-128.00;-1.00;-1.00;100089;1303;1003212;-28
2022/05/03 09:38:03;;;;;;;2.70;2.10;;;;;;;-128.00;-1.00;-1.00;100056;1303;1004098;-28
2022/05/03 09:40:36;;;;;;;2.00;1.80;;;;;;;-128.00;-1.00;-1.00;100092;1303;1004093;-28
2022/05/03 09:43:05;;;;;;;4.00;2.70;;;;;;;-128.00;-1.00;-1.00;100095;1303;1003074;-26
2022/05/03 09:45:35;;;;;;;3.70;2.40;;;;;;;-128.00;-1.00;-1.00;100069;1303;1003894;-26
2022/05/03 09:48:05;;;;;;;4.90;3.00;;;;;;;-128.00;-1.00;-1.00;100030;1303;1003234;-28
2022/05/03 09:50:39;;;;;;;8.70;3.10;;;;;;;-128.00;-1.00;-1.00;100075;1303;1003568;-29
2022/05/03 09:53:11;;;;;;;11.60;5.40;;;;;;;-128.00;-1.00;-1.00;100060;1303;1002663;-29
2022/05/03 09:55:40;;;;;;;16.50;3.00;;;;;;;-128.00;-1.00;-1.00;100096;1303;1003881;-29
2022/05/03 09:58:10;;;;;;;2.90;2.40;;;;;;;-128.00;-1.00;-1.00;100033;1303;1004762;-25
2022/05/03 10:00:41;;;;;;;3.00;2.70;;;;;;;-128.00;-1.00;-1.00;100090;1303;1004369;-26
2022/05/03 10:03:10;;;;;;;2.60;2.10;;;;;;;-128.00;-1.00;-1.00;100095;1303;1003468;-29
2022/05/03 10:05:41;;;;;;;3.70;3.10;;;;;;;-128.00;-1.00;-1.00;100067;1303;1004404;-29
2022/05/03 10:08:11;;;;;;;3.10;2.10;;;;;;;-128.00;-1.00;-1.00;100129;1303;1004068;-25
2022/05/03 10:10:43;;;;;;;2.10;1.40;;;;;;;-128.00;-1.00;-1.00;100108;1303;1002860;-29
2022/05/03 10:13:13;;;;;;;3.90;3.10;;;;;;;-128.00;-1.00;-1.00;100100;1302;1003761;-29
2022/05/03 10:21:03;;;;;;;7.30;2.80;;;;;;;-128.00;-1.00;-1.00;100100;1303;1003811;-25
2022/05/03 10:23:33;;;;;;;2.20;1.40;;;;;;;-128.00;-1.00;-1.00;100063;1303;1004772;-25
2022/05/03 10:26:06;;;;;;;2.60;2.30;;;;;;;-128.00;-1.00;-1.00;100099;1303;1003655;-24
2022/05/03 10:28:38;;;;;;;;;;;;;;;-128.00;-1.00;-1.00;100144;1303;1004192;-28
2022/05/03 10:31:08;;;;;;;2.90;2.50;;;;;;;-128.00;-1.00;-1.00;100199;1303;1004836;-24
2022/05/03 10:33:38;;;;;;;1.40;1.30;;;;;;;-128.00;-1.00;-1.00;100152;1303;1002564;-28
2022/05/03 10:36:14;;;;;;;4.00;3.00;;;;;;;-128.00;-1.00;-1.00;100165;1303;1003975;-24
2022/05/03 10:38:43;;;;;;;2.80;2.30;;;;;;;-128.00;-1.00;-1.00;99952;1303;1003873;-24
2022/05/03 10:41:23;;;;;;;2.70;2.40;;;;;;;-128.00;-1.00;-1.00;100073;1303;1003537;-28
2022/05/03 10:43:52;;;;;;;2.90;2.30;;;;;;;-128.00;-1.00;-1.00;100056;1303;1003441;-24
2022/05/03 10:46:22;;;;;;;3.20;1.90;;;;;;;-128.00;-1.00;-1.00;100155;1303;1003227;-24
2022/05/03 10:48:58;;;;;;;4.00;2.30;;;;;;;-128.00;-1.00;-1.00;100061;1303;1002971;-24
2022/05/03 10:51:27;;;;;;;5.70;1.60;;;;;;;-128.00;-1.00;-1.00;99951;1303;1003559;-28
2022/05/03 10:53:59;;;;;;;2.70;2.40;;;;;;;-128.00;-1.00;-1.00;100190;1303;1002674;-28
2022/05/03 10:56:28;;;;;;;1.80;1.40;;;;;;;-128.00;-1.00;-1.00;100137;1303;1003346;-28
2022/05/03 10:59:07;;;;;;;3.60;3.20;;;;;;;-128.00;-1.00;-1.00;100160;1303;1002636;-24
2022/05/03 11:01:52;;;;;;;3.60;1.90;;;;;;;-128.00;-1.00;-1.00;100183;1303;1002839;-28
2022/05/03 11:04:30;;;;;;;7.00;3.00;;;;;;;-128.00;-1.00;-1.00;100149;1303;1002821;-24
2022/05/03 11:07:08;;;;;;;4.00;3.20;;;;;;;-128.00;-1.00;-1.00;100126;1303;1002876;-28
2022/05/03 11:09:45;;;;;;;4.30;2.80;;;;;;;-128.00;-1.00;-1.00;100054;1303;1003589;-28
2022/05/03 11:12:14;;;;;;;5.40;2.60;;;;;;;-128.00;-1.00;-1.00;100065;1303;1003872;-24
2022/05/03 11:14:44;;;;;;;2.50;2.10;;;;;;;-128.00;-1.00;-1.00;100060;1303;1004653;-24
2022/05/03 11:17:13;;;;;;;3.90;2.30;;;;;;;-128.00;-1.00;-1.00;100123;1303;1003966;-28
2022/05/03 11:19:46;;;;;;;3.80;2.00;;;;;;;-128.00;-1.00;-1.00;100241;1303;1003163;-28
2022/05/03 11:22:17;;;;;;;3.50;2.20;;;;;;;-128.00;-1.00;-1.00;100159;1303;1002714;-24
2022/05/03 11:24:48;;;;;;;4.70;3.10;;;;;;;-128.00;-1.00;-1.00;100188;1302;1003098;-24
2022/05/03 11:27:17;;;;;;;4.70;2.70;;;;;;;-128.00;-1.00;-1.00;100184;1303;1003101;-28
2022/05/03 11:29:58;;;;;;;6.30;4.20;;;;;;;-128.00;-1.00;-1.00;100156;1302;1002596;-25
2022/05/03 11:32:39;;;;;;;2.30;2.10;;;;;;;-128.00;-1.00;-1.00;100161;1303;1003646;-24
2022/05/03 11:35:20;;;;;;;5.30;2.40;;;;;;;-128.00;-1.00;-1.00;100193;1303;1003191;-30
2022/05/03 11:38:00;;;;;;;4.10;1.70;;;;;;;-128.00;-1.00;-1.00;99929;1303;1003156;-28
2022/05/03 11:40:37;;;;;;;5.10;3.50;;;;;;;-128.00;-1.00;-1.00;100168;1303;1002914;-24
2022/05/03 11:43:16;;;;;;;2.60;2.30;;;;;;;-128.00;-1.00;-1.00;100166;1302;1004271;-28
2022/05/03 11:45:54;;;;;;;4.60;3.20;;;;;;;-128.00;-1.00;-1.00;100264;1303;1003375;-25
2022/05/03 11:48:31;;;;;;;4.20;2.90;;;;;;;-128.00;-1.00;-1.00;100163;1301;1003934;-24
2022/05/03 11:56:31;;;;;;;2.50;1.90;;;;;;;-128.00;-1.00;-1.00;100280;1303;1002996;-28
2022/05/03 11:59:09;;;;;;;2.70;2.50;;;;;;;-128.00;-1.00;-1.00;100102;1303;1003872;-27
2022/05/03 12:01:38;;;;;;;5.10;2.80;;;;;;;-128.00;-1.00;-1.00;100094;1303;1003683;-27
2022/05/03 12:04:08;;;;;;;1.60;1.40;;;;;;;-128.00;-1.00;-1.00;100105;1303;1004691;-30
2022/05/03 12:06:43;;;;;;;2.90;2.50;;;;;;;-128.00;-1.00;-1.00;100095;1303;1003574;-28
2022/05/03 12:09:17;;;;;;;2.90;2.00;;;;;;;-128.00;-1.00;-1.00;100050;1303;1003891;-24